Terminal Aerodrome Forecast
Issued by NWS

Home | Current Version | Previous Version | Text Only | Print | Product List | Glossary On
Versions: 1 2 3 4 5 6 7 8 9 10 11 12 13 14 15 16
000
FTUS45 KTFX 272323
TAFGTF
TAF
KGTF 272323Z 2800/2824 30010KT P6SM -SHRA SCT020 OVC050
     FM280400 24011KT P6SM VCSH BKN060
     FM281100 24015KT P6SM SCT060 BKN120
     FM281900 27016G25KT P6SM FEW050 SCT150=

USA.gov is the U.S. government's official web portal to all federal, state and local government web resources and services.